createdAt,value
2023-05-24T00:01:50.156Z,2.08
2023-05-24T00:04:52.986Z,2.40
2023-05-24T00:07:54.870Z,2.25
2023-05-24T00:10:56.702Z,2.33
2023-05-24T00:13:58.644Z,2.30
2023-05-24T00:17:00.526Z,2.60
2023-05-24T00:20:03.317Z,2.17
2023-05-24T00:23:06.972Z,2.22
2023-05-24T00:26:08.954Z,3.30
2023-05-24T00:29:12.272Z,2.58
2023-05-24T00:32:14.287Z,2.88
2023-05-24T00:35:16.346Z,2.72
2023-05-24T00:38:18.182Z,2.90
2023-05-24T00:41:20.047Z,2.63
2023-05-24T00:44:21.903Z,2.80
2023-05-24T00:50:26.297Z,2.47
2023-05-24T00:53:30.600Z,2.35
2023-05-24T00:59:35.054Z,2.23
2023-05-24T01:02:38.007Z,2.35
2023-05-24T01:05:39.924Z,2.50
2023-05-24T01:09:15.690Z,2.40
2023-05-24T01:12:33.093Z,2.40
2023-05-24T01:15:50.137Z,2.08
2023-05-24T01:18:57.932Z,2.08
2023-05-24T01:22:25.791Z,2.33
2023-05-24T01:25:42.499Z,2.22
2023-05-24T01:28:47.157Z,2.38
2023-05-24T01:31:50.461Z,2.60
2023-05-24T01:34:53.249Z,2.47
2023-05-24T01:37:54.984Z,2.40
2023-05-24T01:41:05.774Z,2.30
2023-05-24T01:44:27.591Z,1.98
2023-05-24T01:47:52.584Z,2.08
2023-05-24T01:51:04.806Z,2.25
2023-05-24T01:54:07.826Z,2.35
2023-05-24T01:57:11.233Z,2.30
2023-05-24T02:00:18.401Z,2.40
2023-05-24T02:03:21.358Z,2.10
2023-05-24T02:06:23.182Z,2.13
2023-05-24T02:09:25.043Z,2.10
2023-05-24T02:12:27.040Z,2.10
2023-05-24T02:15:30.496Z,2.15
2023-05-24T02:18:34.904Z,2.30
2023-05-24T02:21:37.069Z,2.10
2023-05-24T02:24:40.472Z,2.40
2023-05-24T02:27:47.241Z,2.08
2023-05-24T02:30:49.225Z,2.00
2023-05-24T02:33:51.156Z,2.37
2023-05-24T02:36:54.505Z,2.50
2023-05-24T02:39:56.501Z,2.10
2023-05-24T02:42:58.471Z,2.30
2023-05-24T02:46:00.377Z,2.10
2023-05-24T02:49:02.326Z,2.10
2023-05-24T02:52:04.748Z,2.40
2023-05-24T02:55:08.617Z,2.10
2023-05-24T02:58:12.175Z,2.10
2023-05-24T03:01:14.244Z,2.10
2023-05-24T03:04:16.686Z,2.10
2023-05-24T03:07:18.544Z,2.40
2023-05-24T03:10:20.483Z,1.97
2023-05-24T03:13:22.546Z,3.03
2023-05-24T03:16:25.459Z,5.78
2023-05-24T03:19:27.471Z,6.80
2023-05-24T03:22:29.768Z,5.63
2023-05-24T03:25:31.844Z,3.90
2023-05-24T03:28:33.961Z,2.95
2023-05-24T03:31:36.070Z,2.40
2023-05-24T03:34:38.159Z,2.38
2023-05-24T03:37:40.591Z,2.13
2023-05-24T03:40:42.654Z,2.13
2023-05-24T03:43:54.779Z,1.83
2023-05-24T03:46:56.724Z,2.08
2023-05-24T03:53:01.223Z,1.85
2023-05-24T03:56:03.103Z,2.13
2023-05-24T03:59:05.047Z,1.95
2023-05-24T04:02:07.829Z,1.80
2023-05-24T04:05:11.449Z,1.90
2023-05-24T04:08:15.106Z,2.17
2023-05-24T04:11:17.416Z,1.80
2023-05-24T04:14:20.607Z,2.00
2023-05-24T04:17:24.843Z,2.00
2023-05-24T04:20:27.895Z,2.10
2023-05-24T04:23:29.826Z,1.98
2023-05-24T04:26:31.764Z,1.77
2023-05-24T04:29:33.964Z,1.77
2023-05-24T04:32:36.973Z,2.00
2023-05-24T04:35:40.682Z,2.03
2023-05-24T04:38:42.496Z,2.17
2023-05-24T04:41:45.221Z,2.03
2023-05-24T04:44:47.082Z,2.30
2023-05-24T04:47:48.891Z,1.98
2023-05-24T04:50:55.532Z,2.20
2023-05-24T04:53:57.385Z,2.00
2023-05-24T04:56:59.266Z,2.20
2023-05-24T05:00:01.109Z,2.05
2023-05-24T05:03:03.916Z,2.47
2023-05-24T05:06:05.996Z,2.40
2023-05-24T05:09:09.698Z,2.00
2023-05-24T05:12:11.620Z,2.05
2023-05-24T05:15:13.710Z,2.03
2023-05-24T05:18:16.414Z,2.10
2023-05-24T05:21:18.584Z,1.77
2023-05-24T05:24:21.268Z,1.60
2023-05-24T05:27:23.149Z,1.70
2023-05-24T05:30:24.982Z,1.98
2023-05-24T05:33:26.952Z,1.63
2023-05-24T05:36:28.800Z,1.45
2023-05-24T05:39:31.987Z,1.50
2023-05-24T05:42:33.774Z,1.30
2023-05-24T05:45:35.758Z,1.40
2023-05-24T05:48:37.663Z,1.30
2023-05-24T05:51:39.472Z,1.33
2023-05-24T05:54:41.330Z,1.45
2023-05-24T05:57:43.790Z,1.70
2023-05-24T06:03:47.872Z,1.60
2023-05-24T06:09:51.929Z,1.63
2023-05-24T06:12:53.771Z,1.58
2023-05-24T06:15:55.685Z,1.30
2023-05-24T06:19:05.817Z,1.23
2023-05-24T06:22:08.567Z,1.30
2023-05-24T06:25:10.379Z,1.25
2023-05-24T06:28:12.190Z,1.20
2023-05-24T06:31:14.023Z,1.30
2023-05-24T06:34:21.117Z,1.10
2023-05-24T06:37:25.624Z,1.15
2023-05-24T06:40:27.494Z,1.30
2023-05-24T06:43:29.603Z,1.20
2023-05-24T06:46:32.156Z,1.10
2023-05-24T06:49:34.163Z,1.20
2023-05-24T06:52:36.350Z,1.20
2023-05-24T06:55:38.343Z,1.38
2023-05-24T06:58:40.346Z,1.42
2023-05-24T07:01:43.285Z,1.20
2023-05-24T07:04:46.087Z,1.20
2023-05-24T07:07:48.243Z,1.20
2023-05-24T07:10:50.243Z,1.25
2023-05-24T07:13:52.289Z,1.38
2023-05-24T07:16:57.694Z,1.15
2023-05-24T07:20:01.695Z,1.13
2023-05-24T07:23:04.936Z,1.50
2023-05-24T07:26:06.938Z,1.30
2023-05-24T07:29:08.778Z,1.42
2023-05-24T07:32:10.957Z,1.20
2023-05-24T07:38:18.780Z,1.10
2023-05-24T07:41:25.613Z,1.20
2023-05-24T07:44:27.646Z,1.33
2023-05-24T07:47:29.559Z,1.30
2023-05-24T07:50:32.015Z,1.40
2023-05-24T07:56:37.773Z,1.30
2023-05-24T07:59:39.584Z,1.55
2023-05-24T08:02:42.575Z,2.00
2023-05-24T08:05:44.832Z,2.42
2023-05-24T08:11:49.639Z,1.92
2023-05-24T08:14:51.493Z,1.58
2023-05-24T08:17:53.401Z,1.63
2023-05-24T08:20:55.210Z,1.60
2023-05-24T09:39:29.304Z,1.20
2023-05-24T09:42:31.256Z,1.35
2023-05-24T09:45:33.441Z,1.13
2023-05-24T09:48:35.291Z,1.10
2023-05-24T09:51:41.094Z,1.30
2023-05-24T09:54:43.242Z,1.45
2023-05-24T09:57:53.599Z,1.30
2023-05-24T10:01:04.295Z,1.55
2023-05-24T10:04:09.870Z,1.30
2023-05-24T10:07:12.667Z,1.50
2023-05-24T10:13:17.841Z,1.70
2023-05-24T10:16:19.744Z,1.50
2023-05-24T10:19:22.403Z,1.63
2023-05-24T10:22:25.285Z,1.80
2023-05-24T10:25:29.261Z,1.90
2023-05-24T10:28:32.111Z,1.80
2023-05-24T10:31:39.475Z,1.85
2023-05-24T10:34:43.289Z,2.15
2023-05-24T10:37:47.454Z,2.67
2023-05-24T10:40:49.589Z,2.35
2023-05-24T10:44:07.768Z,2.95
2023-05-24T10:47:15.765Z,2.72
2023-05-24T10:50:21.997Z,2.95
2023-05-24T10:53:29.646Z,3.15
2023-05-24T10:56:31.345Z,2.90
2023-05-24T10:59:38.900Z,3.20
2023-05-24T11:02:41.552Z,3.30
2023-05-24T11:05:46.964Z,3.03
2023-05-24T11:08:48.996Z,3.20
2023-05-24T11:11:55.752Z,3.70
2023-05-24T11:14:57.645Z,2.95
2023-05-24T11:18:14.564Z,3.38
2023-05-24T11:21:16.973Z,3.20
2023-05-24T11:24:20.087Z,3.25
2023-05-24T11:27:23.940Z,2.90
2023-05-24T11:30:26.546Z,3.17
2023-05-24T11:33:28.973Z,3.10
2023-05-24T11:36:31.195Z,3.97
2023-05-24T11:39:35.639Z,3.17
2023-05-24T11:42:38.336Z,3.17
2023-05-24T11:45:42.100Z,3.20
2023-05-24T11:48:44.004Z,3.25
2023-05-24T11:51:46.242Z,3.63
2023-05-24T11:54:53.163Z,3.30
2023-05-24T11:57:59.614Z,3.60
2023-05-24T12:01:03.144Z,3.45
2023-05-24T12:04:09.843Z,3.95
2023-05-24T12:07:15.374Z,3.60
2023-05-24T12:10:17.636Z,3.50
2023-05-24T12:13:25.189Z,4.07
2023-05-24T12:16:29.877Z,3.30
2023-05-24T12:19:36.862Z,3.67
2023-05-24T12:22:39.490Z,3.33
2023-05-24T12:25:41.548Z,3.50
2023-05-24T12:34:50.504Z,4.10
2023-05-24T12:37:59.734Z,3.75
2023-05-24T12:41:11.374Z,4.03
2023-05-24T12:44:14.531Z,3.92
2023-05-24T12:47:16.709Z,3.72
2023-05-24T12:50:19.783Z,3.70
2023-05-24T12:53:24.218Z,3.70
2023-05-24T12:56:27.496Z,3.70
2023-05-24T12:59:29.713Z,3.70
2023-05-24T13:05:33.372Z,3.77
2023-05-24T13:08:35.278Z,4.10
2023-05-24T13:11:37.470Z,4.18
2023-05-24T13:17:42.145Z,4.63
2023-05-24T13:20:44.214Z,4.15
2023-05-24T13:23:46.750Z,3.10
2023-05-24T13:26:51.588Z,2.70
2023-05-24T13:33:01.487Z,3.00
2023-05-24T13:36:04.379Z,2.90
2023-05-24T13:42:14.789Z,2.65
2023-05-24T13:45:16.859Z,2.88
2023-05-24T13:48:18.755Z,2.90
2023-05-24T13:51:22.573Z,3.13
2023-05-24T13:54:24.721Z,3.10
2023-05-24T13:57:33.687Z,2.25
2023-05-24T14:00:45.574Z,1.70
2023-05-24T14:06:49.116Z,1.60
2023-05-24T14:09:51.074Z,1.60
2023-05-24T14:13:13.208Z,1.45
2023-05-24T14:16:16.537Z,1.52
2023-05-24T14:19:18.556Z,1.23
2023-05-24T14:22:20.542Z,1.30
2023-05-24T14:25:22.306Z,1.65
2023-05-24T14:28:24.091Z,1.20
2023-05-24T14:31:26.190Z,1.40
2023-05-24T14:34:28.021Z,1.70
2023-05-24T14:37:29.776Z,1.42
2023-05-24T14:40:31.977Z,1.38
2023-05-24T14:46:36.008Z,1.80
2023-05-24T14:52:39.616Z,2.30
2023-05-24T14:55:43.144Z,2.55
2023-05-24T14:58:45.815Z,2.00
2023-05-24T15:01:47.780Z,2.05
2023-05-24T15:04:54.711Z,1.85
2023-05-24T15:07:56.538Z,2.08
2023-05-24T15:10:59.165Z,2.10
2023-05-24T15:14:02.058Z,1.98
2023-05-24T15:17:04.045Z,2.20
2023-05-24T15:20:07.339Z,2.35
2023-05-24T15:23:10.846Z,2.08
2023-05-24T15:26:12.932Z,2.60
2023-05-24T15:29:14.678Z,2.35
2023-05-24T15:32:16.587Z,2.25
2023-05-24T15:35:18.467Z,2.30
2023-05-24T15:38:20.876Z,2.63
2023-05-24T15:41:22.986Z,3.30
2023-05-24T15:44:24.953Z,2.88
2023-05-24T15:47:36.164Z,2.97
2023-05-24T15:51:03.807Z,3.00
2023-05-24T15:54:00.052Z,2.72
2023-05-24T15:57:02.981Z,2.83
2023-05-24T16:00:05.424Z,2.90
2023-05-24T16:03:15.666Z,2.80
2023-05-24T16:06:17.852Z,2.90
2023-05-24T16:09:19.613Z,3.03
2023-05-24T16:12:22.007Z,2.95
2023-05-24T16:18:29.029Z,3.30
2023-05-24T16:21:31.137Z,3.42
2023-05-24T16:24:33.063Z,3.00
2023-05-24T16:27:34.931Z,3.13
2023-05-24T16:30:36.864Z,3.58
2023-05-24T16:33:39.761Z,3.40
2023-05-24T16:36:41.661Z,3.97
2023-05-24T16:39:43.502Z,3.65
2023-05-24T16:42:46.425Z,4.03
2023-05-24T16:45:48.360Z,4.70
2023-05-24T16:48:50.352Z,4.90
2023-05-24T16:51:52.393Z,3.97
2023-05-24T16:54:54.263Z,4.07
2023-05-24T16:57:56.165Z,3.28
2023-05-24T17:00:58.751Z,3.38
2023-05-24T17:04:00.941Z,3.40
2023-05-24T17:07:02.927Z,2.90
2023-05-24T17:10:05.143Z,3.05
2023-05-24T17:13:07.101Z,3.08
2023-05-24T17:16:10.877Z,2.80
2023-05-24T17:19:14.022Z,2.60
2023-05-24T17:22:16.055Z,2.70
2023-05-24T17:25:18.016Z,2.70
2023-05-24T17:28:19.809Z,3.30
2023-05-24T17:31:21.846Z,2.90
2023-05-24T17:34:23.859Z,2.97
2023-05-24T17:37:25.640Z,3.50
2023-05-24T17:40:27.486Z,3.35
2023-05-24T17:43:31.662Z,3.55
2023-05-24T17:46:36.031Z,3.35
2023-05-24T17:49:38.679Z,3.45
2023-05-24T17:52:40.665Z,3.50
2023-05-24T17:55:42.732Z,3.92
2023-05-24T17:58:46.809Z,3.40
2023-05-24T18:01:49.399Z,3.83
2023-05-24T18:04:52.749Z,3.20
2023-05-24T18:07:54.712Z,3.60
2023-05-24T18:10:57.133Z,3.95
2023-05-24T18:17:02.339Z,4.07
2023-05-24T18:20:04.574Z,4.20
2023-05-24T18:23:06.363Z,3.92
2023-05-24T18:26:09.957Z,3.60
2023-05-24T18:29:15.976Z,4.40
2023-05-24T18:32:17.931Z,4.15
2023-05-24T18:35:22.453Z,3.60
2023-05-24T18:38:24.426Z,4.05
2023-05-24T18:41:26.229Z,3.72
2023-05-24T18:44:28.173Z,3.63
2023-05-24T18:47:31.193Z,4.10
2023-05-24T18:50:33.119Z,3.72
2023-05-24T18:53:35.951Z,3.75
2023-05-24T18:56:38.063Z,3.67
2023-05-24T18:59:39.897Z,3.55
2023-05-24T19:02:41.963Z,3.50
2023-05-24T19:05:44.344Z,3.67
2023-05-24T19:08:47.787Z,3.67
2023-05-24T19:11:49.698Z,4.55
2023-05-24T19:14:51.538Z,3.83
2023-05-24T19:17:55.689Z,3.90
2023-05-24T19:20:57.662Z,3.88
2023-05-24T19:23:59.835Z,3.78
2023-05-24T19:27:01.754Z,4.00
2023-05-24T19:30:05.232Z,3.97
2023-05-24T19:33:08.532Z,3.72
2023-05-24T19:36:10.769Z,3.60
2023-05-24T19:39:12.733Z,3.72
2023-05-24T19:42:14.990Z,4.03
2023-05-24T19:45:16.919Z,4.30
2023-05-24T19:48:18.825Z,4.25
2023-05-24T19:51:21.143Z,4.10
2023-05-24T19:54:23.072Z,4.47
2023-05-24T19:57:24.901Z,4.28
2023-05-24T20:00:26.751Z,4.20
2023-05-24T20:03:28.848Z,4.25
2023-05-24T20:06:31.502Z,4.40
2023-05-24T20:12:35.124Z,3.90
2023-05-24T20:15:37.096Z,4.40
2023-05-24T20:18:39.261Z,4.60
2023-05-24T20:21:41.113Z,4.05
2023-05-24T20:24:42.918Z,4.60
2023-05-24T20:27:44.751Z,4.00
2023-05-24T20:30:46.647Z,4.25
2023-05-24T20:33:51.477Z,4.30
2023-05-24T20:36:53.254Z,3.85
2023-05-24T20:39:55.685Z,3.88
2023-05-24T20:42:57.825Z,3.85
2023-05-24T20:46:00.200Z,3.10
2023-05-24T20:49:02.131Z,3.83
2023-05-24T20:52:04.635Z,3.53
2023-05-24T20:55:07.031Z,3.45
2023-05-24T20:58:08.816Z,4.03
2023-05-24T21:01:10.660Z,3.40
2023-05-24T21:04:12.573Z,3.53
2023-05-24T21:07:14.495Z,3.70
2023-05-24T21:10:20.058Z,3.28
2023-05-24T21:13:22.795Z,3.10
2023-05-24T21:16:25.301Z,3.17
2023-05-24T21:22:28.988Z,3.08
2023-05-24T21:25:30.879Z,2.83
2023-05-24T21:28:32.754Z,3.00
2023-05-24T21:31:35.906Z,2.70
2023-05-24T21:34:37.911Z,3.05
2023-05-24T21:37:39.822Z,2.90
2023-05-24T21:40:41.718Z,2.30
2023-05-24T21:43:43.731Z,2.88
2023-05-24T21:46:45.677Z,2.85
2023-05-24T21:49:47.685Z,2.60
2023-05-24T21:52:49.450Z,2.78
2023-05-24T21:55:51.442Z,2.88
2023-05-24T21:58:53.576Z,2.65
2023-05-24T22:01:55.782Z,2.90
2023-05-24T22:04:57.833Z,3.30
2023-05-24T22:07:59.636Z,2.83
2023-05-24T22:11:01.533Z,2.70
2023-05-24T22:14:03.544Z,3.00
2023-05-24T22:17:05.752Z,3.00
2023-05-24T22:20:09.069Z,2.67
2023-05-24T22:23:12.059Z,2.70
2023-05-24T22:26:16.825Z,2.78
2023-05-24T22:29:20.112Z,2.88
2023-05-24T22:32:22.020Z,2.80
2023-05-24T22:35:23.971Z,2.92
2023-05-24T22:38:25.762Z,2.63
2023-05-24T22:41:28.260Z,2.27
2023-05-24T22:44:30.369Z,2.35
2023-05-24T22:47:33.319Z,2.22
2023-05-24T22:50:36.018Z,2.47
2023-05-24T22:53:39.572Z,2.70
2023-05-24T22:56:41.714Z,2.58
2023-05-24T22:59:45.852Z,2.53
2023-05-24T23:02:47.722Z,2.70
2023-05-24T23:05:53.619Z,2.40
2023-05-24T23:08:55.636Z,2.53
2023-05-24T23:11:58.964Z,2.20
2023-05-24T23:15:00.862Z,2.72
2023-05-24T23:18:05.800Z,2.38
2023-05-24T23:21:10.101Z,2.45
2023-05-24T23:24:14.714Z,2.58
2023-05-24T23:27:16.723Z,2.40
2023-05-24T23:30:18.548Z,2.55
2023-05-24T23:33:20.433Z,2.20
2023-05-24T23:36:22.273Z,2.30
2023-05-24T23:39:24.090Z,2.63
2023-05-24T23:42:26.407Z,2.25
2023-05-24T23:45:28.250Z,2.35
2023-05-24T23:48:30.073Z,2.42
2023-05-24T23:51:34.895Z,2.15
2023-05-24T23:54:36.937Z,2.47
2023-05-24T23:57:41.950Z,2.55
